createdAt,value
2018-05-13T00:00:09.697Z,15.58
2018-05-13T00:02:37.241Z,15.48
2018-05-13T00:05:04.761Z,15.45
2018-05-13T00:07:32.231Z,15.41
2018-05-13T00:09:59.788Z,15.35
2018-05-13T00:12:27.329Z,15.33
2018-05-13T00:14:54.861Z,15.28
2018-05-13T00:17:22.389Z,15.02
2018-05-13T00:19:49.918Z,15.09
2018-05-13T00:22:17.482Z,15.20
2018-05-13T00:24:45.035Z,15.32
2018-05-13T00:27:12.576Z,15.38
2018-05-13T00:29:40.106Z,15.31
2018-05-13T00:32:07.630Z,15.35
2018-05-13T00:34:35.151Z,15.35
2018-05-13T00:37:02.655Z,15.37
2018-05-13T00:39:30.177Z,15.23
2018-05-13T00:41:57.701Z,15.31
2018-05-13T00:44:25.214Z,15.26
2018-05-13T00:46:52.721Z,15.17
2018-05-13T00:49:20.238Z,15.00
2018-05-13T00:51:47.749Z,15.24
2018-05-13T00:54:27.149Z,15.08
2018-05-13T00:56:54.635Z,15.11
2018-05-13T00:59:22.186Z,15.25
2018-05-13T01:01:49.754Z,15.13
2018-05-13T01:04:17.287Z,15.15
2018-05-13T01:06:44.841Z,15.04
2018-05-13T01:09:12.405Z,15.20
2018-05-13T01:11:39.933Z,15.20
2018-05-13T01:14:07.465Z,15.24
2018-05-13T01:16:34.996Z,15.31
2018-05-13T01:19:02.558Z,15.31
2018-05-13T01:21:30.100Z,15.33
2018-05-13T01:23:57.658Z,15.37
2018-05-13T01:26:25.224Z,15.37
2018-05-13T01:28:52.740Z,15.40
2018-05-13T01:31:20.284Z,15.40
2018-05-13T01:33:47.809Z,15.19
2018-05-13T01:36:15.362Z,15.16
2018-05-13T01:38:42.863Z,15.26
2018-05-13T01:41:10.402Z,15.26
2018-05-13T01:43:37.906Z,15.40
2018-05-13T01:46:05.459Z,15.46
2018-05-13T01:48:32.987Z,15.50
2018-05-13T01:51:00.524Z,15.49
2018-05-13T01:53:28.083Z,15.58
2018-05-13T01:55:55.671Z,15.71
2018-05-13T01:58:23.195Z,15.98
2018-05-13T02:00:50.764Z,16.23
2018-05-13T02:03:18.311Z,16.43
2018-05-13T02:05:45.842Z,16.58
2018-05-13T02:10:44.953Z,16.70
2018-05-13T02:13:12.493Z,16.68
2018-05-13T02:15:40.285Z,16.51
2018-05-13T02:18:07.769Z,16.52
2018-05-13T02:20:35.310Z,16.60
2018-05-13T02:23:02.791Z,16.52
2018-05-13T02:25:30.305Z,16.50
2018-05-13T02:27:57.829Z,16.40
2018-05-13T02:30:25.342Z,16.20
2018-05-13T02:32:52.825Z,16.15
2018-05-13T02:35:20.366Z,15.96
2018-05-13T02:37:47.924Z,16.01
2018-05-13T02:40:15.443Z,15.67
2018-05-13T02:42:42.937Z,15.68
2018-05-13T02:45:10.494Z,15.67
2018-05-13T02:47:37.984Z,15.71
2018-05-13T02:50:05.528Z,15.64
2018-05-13T02:52:33.061Z,15.54
2018-05-13T02:55:00.553Z,15.54
2018-05-13T02:57:28.059Z,15.58
2018-05-13T02:59:55.570Z,15.53
2018-05-13T03:02:23.112Z,15.57
2018-05-13T03:04:50.622Z,15.50
2018-05-13T03:07:18.131Z,15.51
2018-05-13T03:09:45.645Z,15.52
2018-05-13T03:12:13.157Z,15.55
2018-05-13T03:14:40.647Z,15.61
2018-05-13T03:17:08.226Z,15.69
2018-05-13T03:19:35.734Z,15.72
2018-05-13T03:22:03.264Z,15.82
2018-05-13T03:24:30.754Z,15.76
2018-05-13T03:26:58.308Z,15.78
2018-05-13T03:29:26.626Z,15.80
2018-05-13T03:31:54.189Z,15.89
2018-05-13T03:34:21.734Z,15.96
2018-05-13T03:36:49.270Z,15.96
2018-05-13T03:39:16.755Z,15.88
2018-05-13T03:41:44.309Z,15.91
2018-05-13T03:44:11.889Z,15.87
2018-05-13T03:46:39.450Z,15.93
2018-05-13T03:49:06.987Z,15.96
2018-05-13T03:51:34.493Z,16.03
2018-05-13T03:54:01.991Z,16.12
2018-05-13T03:56:29.511Z,15.92
2018-05-13T03:58:57.029Z,15.93
2018-05-13T04:01:24.657Z,16.03
2018-05-13T04:03:52.347Z,15.98
2018-05-13T04:06:19.862Z,15.94
2018-05-13T04:08:59.246Z,15.98
2018-05-13T04:11:38.468Z,15.99
2018-05-13T04:14:17.587Z,15.94
2018-05-13T04:16:45.960Z,15.90
2018-05-13T04:19:13.481Z,15.98
2018-05-13T04:21:41.018Z,16.00
2018-05-13T04:24:08.570Z,16.01
2018-05-13T04:26:36.094Z,16.05
2018-05-13T04:29:03.656Z,16.06
2018-05-13T04:31:31.146Z,16.10
2018-05-13T04:33:58.640Z,16.09
2018-05-13T04:36:26.157Z,16.03
2018-05-13T04:38:53.694Z,16.00
2018-05-13T04:41:21.168Z,16.01
2018-05-13T04:43:48.687Z,16.07
2018-05-13T04:46:16.408Z,16.10
2018-05-13T04:48:44.247Z,16.10
2018-05-13T04:51:11.824Z,16.11
2018-05-13T04:53:39.337Z,16.08
2018-05-13T04:56:06.842Z,16.12
2018-05-13T04:58:34.356Z,16.21
2018-05-13T05:01:01.852Z,16.10
2018-05-13T05:03:29.362Z,16.00
2018-05-13T05:05:56.854Z,16.03
2018-05-13T05:08:24.352Z,16.05
2018-05-13T05:10:51.837Z,16.05
2018-05-13T05:13:19.349Z,15.95
2018-05-13T05:15:46.876Z,15.90
2018-05-13T05:18:14.434Z,15.92
2018-05-13T05:20:41.963Z,16.11
2018-05-13T05:23:09.475Z,16.13
2018-05-13T05:25:37.015Z,16.08
2018-05-13T05:28:04.547Z,15.93
2018-05-13T05:30:32.057Z,16.00
2018-05-13T05:32:59.585Z,16.03
2018-05-13T05:35:27.123Z,16.10
2018-05-13T05:37:54.666Z,16.14
2018-05-13T05:40:22.173Z,16.19
2018-05-13T05:42:49.703Z,16.22
2018-05-13T05:45:17.246Z,16.28
2018-05-13T05:47:44.775Z,16.33
2018-05-13T05:50:12.322Z,16.39
2018-05-13T05:52:39.849Z,16.42
2018-05-13T05:55:07.419Z,16.24
2018-05-13T05:57:34.911Z,16.45
2018-05-13T06:00:02.469Z,16.34
2018-05-13T06:02:29.974Z,16.05
2018-05-13T06:04:57.518Z,16.09
2018-05-13T06:07:25.258Z,16.11
2018-05-13T06:09:52.791Z,16.05
2018-05-13T06:12:20.342Z,15.98
2018-05-13T06:14:47.875Z,15.98
2018-05-13T06:17:15.403Z,16.06
2018-05-13T06:19:43.037Z,16.04
2018-05-13T06:22:10.455Z,16.12
2018-05-13T06:24:38.006Z,16.12
2018-05-13T06:27:05.548Z,16.02
2018-05-13T06:29:33.088Z,16.03
2018-05-13T06:32:00.628Z,16.03
2018-05-13T06:34:28.170Z,16.04
2018-05-13T06:36:55.695Z,15.99
2018-05-13T06:39:23.218Z,15.94
2018-05-13T06:41:50.791Z,15.85
2018-05-13T06:44:18.397Z,15.86
2018-05-13T06:46:46.044Z,15.77
2018-05-13T06:49:13.589Z,15.71
2018-05-13T06:51:41.166Z,15.69
2018-05-13T06:54:08.754Z,15.72
2018-05-13T06:56:36.408Z,15.67
2018-05-13T06:59:04.551Z,15.56
2018-05-13T07:01:32.201Z,15.51
2018-05-13T07:03:59.782Z,15.43
2018-05-13T07:06:27.353Z,15.37
2018-05-13T07:08:55.100Z,15.40
2018-05-13T07:11:22.711Z,15.38
2018-05-13T07:13:50.334Z,15.45
2018-05-13T07:16:17.925Z,15.47
2018-05-13T07:18:45.480Z,15.57
2018-05-13T07:21:13.129Z,15.59
2018-05-13T07:23:40.771Z,15.69
2018-05-13T07:26:08.353Z,15.70
2018-05-13T07:28:35.880Z,15.77
2018-05-13T07:31:03.463Z,15.82
2018-05-13T07:33:31.096Z,15.83
2018-05-13T07:35:58.654Z,15.81
2018-05-13T07:38:26.226Z,15.75
2018-05-13T07:40:53.811Z,15.59
2018-05-13T07:43:21.427Z,15.59
2018-05-13T07:45:49.028Z,15.60
2018-05-13T07:48:16.563Z,15.51
2018-05-13T07:50:44.208Z,15.62
2018-05-13T07:53:14.357Z,15.61
2018-05-13T07:55:41.972Z,15.58
2018-05-13T07:58:09.640Z,15.58
2018-05-13T08:00:37.605Z,15.56
2018-05-13T08:03:05.172Z,15.62
2018-05-13T08:05:32.764Z,15.51
2018-05-13T08:08:00.314Z,15.40
2018-05-13T08:10:27.927Z,15.41
2018-05-13T08:12:55.446Z,15.29
2018-05-13T08:15:22.991Z,15.27
2018-05-13T08:17:50.547Z,15.24
2018-05-13T08:20:18.177Z,15.13
2018-05-13T08:22:45.654Z,15.05
2018-05-13T08:25:13.265Z,15.01
2018-05-13T08:27:40.805Z,14.91
2018-05-13T08:30:08.334Z,14.91
2018-05-13T08:32:35.895Z,14.93
2018-05-13T08:35:03.603Z,14.90
2018-05-13T08:37:31.167Z,14.88
2018-05-13T08:39:58.751Z,14.88
2018-05-13T08:42:26.364Z,14.95
2018-05-13T08:44:53.996Z,14.91
2018-05-13T08:47:21.554Z,14.93
2018-05-13T08:49:49.166Z,14.94
2018-05-13T08:52:16.816Z,14.94
2018-05-13T08:54:44.399Z,14.84
2018-05-13T08:57:11.972Z,14.80
2018-05-13T08:59:39.795Z,14.75
2018-05-13T09:02:07.246Z,14.70
2018-05-13T09:04:34.721Z,14.62
2018-05-13T09:07:02.216Z,14.59
2018-05-13T09:09:29.686Z,14.58
2018-05-13T09:11:57.174Z,14.60
2018-05-13T09:14:24.672Z,14.63
2018-05-13T09:16:52.182Z,14.62
2018-05-13T09:19:19.664Z,14.64
2018-05-13T09:21:47.160Z,14.68
2018-05-13T09:24:14.638Z,14.72
2018-05-13T09:26:42.195Z,14.64
2018-05-13T09:29:09.667Z,14.67
2018-05-13T09:31:37.224Z,14.68
2018-05-13T09:34:04.717Z,14.60
2018-05-13T09:36:32.198Z,14.62
2018-05-13T09:38:59.916Z,14.53
2018-05-13T09:41:27.394Z,14.49
2018-05-13T09:43:54.895Z,14.48
2018-05-13T09:46:22.374Z,14.44
2018-05-13T09:48:49.976Z,14.40
2018-05-13T09:51:17.533Z,14.43
2018-05-13T09:53:44.978Z,14.53
2018-05-13T09:56:12.459Z,14.54
2018-05-13T09:58:39.966Z,14.64
2018-05-13T10:01:07.437Z,14.75
2018-05-13T10:03:34.930Z,14.87
2018-05-13T10:06:02.409Z,14.91
2018-05-13T10:08:29.911Z,14.85
2018-05-13T10:10:57.382Z,14.79
2018-05-13T10:13:24.870Z,14.70
2018-05-13T10:15:52.403Z,14.66
2018-05-13T10:18:19.892Z,14.62
2018-05-13T10:20:47.365Z,14.66
2018-05-13T10:23:14.849Z,14.65
2018-05-13T10:25:42.334Z,14.70
2018-05-13T10:28:09.817Z,14.68
2018-05-13T10:30:37.289Z,14.66
2018-05-13T10:33:04.769Z,14.73
2018-05-13T10:35:32.241Z,14.78
2018-05-13T10:37:59.732Z,14.87
2018-05-13T10:40:27.206Z,14.93
2018-05-13T10:42:54.693Z,14.96
2018-05-13T10:45:22.801Z,15.01
2018-05-13T10:47:50.294Z,14.99
2018-05-13T10:50:17.769Z,14.84
2018-05-13T10:52:45.273Z,14.87
2018-05-13T10:55:12.741Z,14.91
2018-05-13T10:57:40.272Z,14.87
2018-05-13T11:00:07.729Z,14.81
2018-05-13T11:02:35.205Z,14.61
2018-05-13T11:05:03.558Z,14.55
2018-05-13T11:07:31.033Z,14.43
2018-05-13T11:09:58.527Z,14.45
2018-05-13T11:12:25.993Z,14.48
2018-05-13T11:14:53.490Z,14.47
2018-05-13T11:17:20.965Z,14.37
2018-05-13T11:19:48.458Z,14.32
2018-05-13T11:22:15.934Z,14.17
2018-05-13T11:24:43.417Z,14.08
2018-05-13T11:27:10.901Z,14.03
2018-05-13T11:29:38.400Z,13.97
2018-05-13T11:32:05.866Z,14.01
2018-05-13T11:34:33.380Z,13.96
2018-05-13T11:37:00.849Z,13.99
2018-05-13T11:39:28.342Z,13.96
2018-05-13T11:41:55.810Z,13.97
2018-05-13T11:44:23.541Z,13.92
2018-05-13T11:46:51.042Z,13.95
2018-05-13T11:49:18.538Z,13.97
2018-05-13T11:51:46.009Z,13.95
2018-05-13T11:54:13.498Z,13.92
2018-05-13T11:56:40.958Z,13.93
2018-05-13T11:59:08.458Z,13.98
2018-05-13T12:01:35.922Z,14.00
2018-05-13T12:04:03.410Z,13.96
2018-05-13T12:06:30.882Z,13.94
2018-05-13T12:08:58.373Z,14.01
2018-05-13T12:11:31.746Z,13.99
2018-05-13T12:13:59.227Z,13.95
2018-05-13T12:16:27.492Z,13.95
2018-05-13T12:18:54.990Z,13.93
2018-05-13T12:21:22.475Z,13.97
2018-05-13T12:23:49.938Z,13.99
2018-05-13T12:26:17.424Z,14.00
2018-05-13T12:28:44.975Z,13.98
2018-05-13T12:31:12.398Z,14.00
2018-05-13T12:33:39.869Z,14.07
2018-05-13T12:36:07.365Z,14.08
2018-05-13T12:38:34.843Z,14.06
2018-05-13T12:41:02.347Z,14.02
2018-05-13T12:43:29.805Z,14.00
2018-05-13T12:45:57.294Z,14.00
2018-05-13T12:48:24.765Z,14.06
2018-05-13T12:50:52.246Z,14.13
2018-05-13T12:53:19.706Z,14.19
2018-05-13T12:55:47.185Z,14.24
2018-05-13T12:58:14.650Z,14.37
2018-05-13T13:00:42.133Z,14.27
2018-05-13T13:03:09.627Z,14.20
2018-05-13T13:05:37.112Z,14.15
2018-05-13T13:08:04.588Z,14.09
2018-05-13T13:10:32.122Z,14.19
2018-05-13T13:12:59.641Z,14.40
2018-05-13T13:15:27.102Z,14.45
2018-05-13T13:17:54.569Z,14.50
2018-05-13T13:20:22.061Z,14.50
2018-05-13T13:22:49.539Z,14.44
2018-05-13T13:25:17.030Z,14.45
2018-05-13T13:27:44.502Z,14.30
2018-05-13T13:30:11.981Z,14.37
2018-05-13T13:32:39.454Z,14.27
2018-05-13T13:35:07.210Z,14.34
2018-05-13T13:37:34.678Z,14.37
2018-05-13T13:40:02.185Z,14.63
2018-05-13T13:42:29.666Z,14.60
2018-05-13T13:44:57.148Z,14.71
2018-05-13T13:47:25.746Z,14.50
2018-05-13T13:49:53.134Z,14.56
2018-05-13T13:52:20.617Z,14.66
2018-05-13T13:54:48.390Z,14.61
2018-05-13T13:57:15.904Z,14.51
2018-05-13T13:59:43.373Z,14.48
2018-05-13T14:02:10.859Z,14.45
2018-05-13T14:04:38.378Z,14.49
2018-05-13T14:07:05.836Z,14.36
2018-05-13T14:09:33.312Z,14.43
2018-05-13T14:12:00.860Z,14.40
2018-05-13T14:14:28.278Z,14.44
2018-05-13T14:16:55.774Z,14.42
2018-05-13T14:19:23.234Z,14.46
2018-05-13T14:21:50.723Z,14.46
2018-05-13T14:24:18.194Z,14.45
2018-05-13T14:26:45.683Z,14.38
2018-05-13T14:29:13.175Z,14.39
2018-05-13T14:31:40.660Z,14.43
2018-05-13T14:34:08.138Z,14.41
2018-05-13T14:36:35.634Z,14.40
2018-05-13T14:39:11.822Z,14.50
2018-05-13T14:41:30.647Z,14.52
2018-05-13T14:43:58.082Z,14.52
2018-05-13T14:46:25.577Z,14.54
2018-05-13T14:48:53.082Z,14.65
2018-05-13T14:51:20.567Z,14.61
2018-05-13T14:53:48.039Z,14.66
2018-05-13T14:56:15.531Z,14.67
2018-05-13T14:58:42.998Z,14.63
2018-05-13T15:01:10.508Z,14.61
2018-05-13T15:03:37.973Z,14.62
2018-05-13T15:06:05.438Z,14.62
2018-05-13T15:08:32.922Z,14.72
2018-05-13T15:11:00.386Z,14.72
2018-05-13T15:13:27.875Z,14.73
2018-05-13T15:15:55.342Z,14.64
2018-05-13T15:18:22.846Z,14.61
2018-05-13T15:20:50.327Z,14.68
2018-05-13T15:23:17.822Z,14.70
2018-05-13T15:25:45.307Z,14.79
2018-05-13T15:28:12.794Z,14.82
2018-05-13T15:30:40.265Z,14.78
2018-05-13T15:33:07.763Z,14.67
2018-05-13T15:35:35.234Z,14.65
2018-05-13T15:38:02.729Z,14.64
2018-05-13T15:40:30.204Z,14.65
2018-05-13T15:42:57.753Z,14.69
2018-05-13T15:45:25.173Z,14.71
2018-05-13T15:47:52.662Z,14.76
2018-05-13T15:50:20.139Z,14.81
2018-05-13T15:52:47.623Z,14.73
2018-05-13T15:55:15.189Z,14.65
2018-05-13T15:57:42.596Z,14.60
2018-05-13T16:00:10.057Z,14.55
2018-05-13T16:02:37.545Z,14.55
2018-05-13T16:05:05.023Z,14.64
2018-05-13T16:07:32.516Z,14.58
2018-05-13T16:09:59.992Z,14.57
2018-05-13T16:12:27.485Z,14.54
2018-05-13T16:14:54.954Z,14.59
2018-05-13T16:17:22.445Z,14.58
2018-05-13T16:19:49.998Z,14.59
2018-05-13T16:22:17.398Z,14.49
2018-05-13T16:24:44.891Z,14.49
2018-05-13T16:27:12.371Z,14.50
2018-05-13T16:29:39.948Z,14.51
2018-05-13T16:32:07.347Z,14.44
2018-05-13T16:34:34.838Z,14.46
2018-05-13T16:37:02.305Z,14.48
2018-05-13T16:39:29.800Z,14.45
2018-05-13T16:41:57.316Z,14.43
2018-05-13T16:44:24.806Z,14.43
2018-05-13T16:46:53.049Z,14.39
2018-05-13T16:49:20.541Z,14.39
2018-05-13T16:51:48.018Z,14.37
2018-05-13T16:54:15.518Z,14.40
2018-05-13T16:56:43.006Z,14.41
2018-05-13T16:59:10.490Z,14.41
2018-05-13T17:01:37.958Z,14.43
2018-05-13T17:04:05.446Z,14.49
2018-05-13T17:06:32.919Z,14.49
2018-05-13T17:09:00.411Z,14.51
2018-05-13T17:11:27.884Z,14.47
2018-05-13T17:13:55.376Z,14.53
2018-05-13T17:16:22.857Z,14.49
2018-05-13T17:18:50.350Z,14.47
2018-05-13T17:21:17.817Z,14.50
2018-05-13T17:23:45.310Z,14.44
2018-05-13T17:26:12.788Z,14.45
2018-05-13T17:28:40.279Z,14.45
2018-05-13T17:31:07.750Z,14.46
2018-05-13T17:33:35.234Z,14.42
2018-05-13T17:36:02.718Z,14.43
2018-05-13T17:38:30.210Z,14.42
2018-05-13T17:40:57.697Z,14.43
2018-05-13T17:43:25.211Z,14.45
2018-05-13T17:45:52.716Z,14.42
2018-05-13T17:48:20.183Z,14.41
2018-05-13T17:50:47.678Z,14.36
2018-05-13T17:53:15.230Z,14.39
2018-05-13T17:55:42.735Z,14.36
2018-05-13T17:58:10.201Z,14.36
2018-05-13T18:00:37.696Z,14.32
2018-05-13T18:03:05.247Z,14.33
2018-05-13T18:05:32.682Z,14.32
2018-05-13T18:08:00.161Z,14.37
2018-05-13T18:10:27.654Z,14.30
2018-05-13T18:12:55.128Z,14.31
2018-05-13T18:15:22.607Z,14.32
2018-05-13T18:17:50.089Z,14.28
2018-05-13T18:20:17.586Z,14.29
2018-05-13T18:22:45.069Z,14.28
2018-05-13T18:25:12.559Z,14.25
2018-05-13T18:27:40.026Z,14.24
2018-05-13T18:30:07.517Z,14.30
2018-05-13T18:32:34.987Z,14.24
2018-05-13T18:35:02.475Z,14.24
2018-05-13T18:37:29.949Z,14.24
2018-05-13T18:39:57.436Z,14.21
2018-05-13T18:42:24.923Z,14.17
2018-05-13T18:44:52.410Z,14.15
2018-05-13T18:47:19.881Z,14.13
2018-05-13T18:49:47.374Z,14.16
2018-05-13T18:52:14.838Z,14.11
2018-05-13T18:54:42.335Z,14.09
2018-05-13T18:57:09.808Z,14.07
2018-05-13T18:59:37.301Z,14.06
2018-05-13T19:02:04.778Z,14.05
2018-05-13T19:04:32.247Z,14.01
2018-05-13T19:06:59.746Z,14.03
2018-05-13T19:09:27.235Z,14.00
2018-05-13T19:11:54.728Z,13.99
2018-05-13T19:14:22.193Z,13.94
2018-05-13T19:16:49.680Z,13.96
2018-05-13T19:19:17.226Z,13.94
2018-05-13T19:21:44.710Z,13.92
2018-05-13T19:24:12.182Z,13.93
2018-05-13T19:26:39.671Z,13.91
2018-05-13T19:29:07.284Z,13.89
2018-05-13T19:31:34.793Z,13.89
2018-05-13T19:34:02.254Z,13.89
2018-05-13T19:36:29.737Z,13.85
2018-05-13T19:38:57.209Z,13.79
2018-05-13T19:41:24.750Z,13.81
2018-05-13T19:43:52.222Z,13.78
2018-05-13T19:46:19.714Z,13.78
2018-05-13T19:48:47.259Z,13.77
2018-05-13T19:51:14.719Z,13.78
2018-05-13T19:53:42.190Z,13.76
2018-05-13T19:56:09.674Z,13.78
2018-05-13T19:58:37.149Z,13.75
2018-05-13T20:01:04.634Z,13.77
2018-05-13T20:03:32.296Z,13.70
2018-05-13T20:05:59.610Z,13.64
2018-05-13T20:08:27.074Z,13.62
2018-05-13T20:10:54.580Z,13.64
2018-05-13T20:13:22.054Z,13.62
2018-05-13T20:15:49.538Z,13.61
2018-05-13T20:18:17.011Z,13.59
2018-05-13T20:20:44.493Z,13.60
2018-05-13T20:23:23.658Z,13.57
2018-05-13T20:25:51.098Z,13.55
2018-05-13T20:28:18.581Z,13.50
2018-05-13T20:30:46.042Z,13.53
2018-05-13T20:33:13.530Z,13.44
2018-05-13T20:35:40.998Z,13.40
2018-05-13T20:38:08.483Z,13.40
2018-05-13T20:40:35.958Z,13.42
2018-05-13T20:43:03.440Z,13.39
2018-05-13T20:45:30.905Z,13.42
2018-05-13T20:47:58.392Z,13.40
2018-05-13T20:50:25.858Z,13.36
2018-05-13T20:52:53.349Z,13.40
2018-05-13T20:55:20.813Z,13.38
2018-05-13T20:57:48.306Z,13.41
2018-05-13T21:00:15.784Z,13.39
2018-05-13T21:02:43.278Z,13.40
2018-05-13T21:05:10.750Z,13.36
2018-05-13T21:07:38.250Z,13.37
2018-05-13T21:10:05.714Z,13.37
2018-05-13T21:12:33.226Z,13.36
2018-05-13T21:15:00.689Z,13.37
2018-05-13T21:17:28.187Z,13.40
2018-05-13T21:19:55.656Z,13.41
2018-05-13T21:22:23.137Z,13.35
2018-05-13T21:24:50.601Z,13.33
2018-05-13T21:27:18.086Z,13.36
2018-05-13T21:29:45.551Z,13.32
2018-05-13T21:32:13.045Z,13.37
2018-05-13T21:34:40.520Z,13.35
2018-05-13T21:37:07.981Z,13.27
2018-05-13T21:39:35.470Z,13.26
2018-05-13T21:42:02.934Z,13.26
2018-05-13T21:44:30.428Z,13.26
2018-05-13T21:46:57.893Z,13.24
2018-05-13T21:49:25.378Z,13.22
2018-05-13T21:51:52.838Z,13.19
2018-05-13T21:54:20.336Z,13.17
2018-05-13T21:56:47.813Z,13.18
2018-05-13T21:59:15.311Z,13.20
2018-05-13T22:01:42.801Z,13.18
2018-05-13T22:04:10.283Z,13.15
2018-05-13T22:06:37.755Z,13.18
2018-05-13T22:09:06.157Z,13.16
2018-05-13T22:11:33.685Z,13.13
2018-05-13T22:14:01.175Z,13.11
2018-05-13T22:16:28.642Z,13.11
2018-05-13T22:18:56.134Z,13.02
2018-05-13T22:21:23.603Z,12.93
2018-05-13T22:23:51.098Z,12.86
2018-05-13T22:26:18.570Z,12.85
2018-05-13T22:28:46.062Z,12.79
2018-05-13T22:31:13.536Z,12.77
2018-05-13T22:33:41.027Z,12.73
2018-05-13T22:36:08.502Z,12.69
2018-05-13T22:38:35.992Z,12.69
2018-05-13T22:41:03.474Z,12.69
2018-05-13T22:43:31.019Z,12.68
2018-05-13T22:45:58.491Z,12.66
2018-05-13T22:48:25.978Z,12.65
2018-05-13T22:50:53.451Z,12.65
2018-05-13T22:53:20.923Z,12.67
2018-05-13T22:55:48.410Z,12.63
2018-05-13T22:58:15.875Z,12.59
2018-05-13T23:00:43.369Z,12.56
2018-05-13T23:03:10.895Z,12.60
2018-05-13T23:05:38.386Z,12.57
2018-05-13T23:08:05.878Z,12.56
2018-05-13T23:10:33.362Z,12.58
2018-05-13T23:13:00.822Z,12.52
2018-05-13T23:15:28.311Z,12.58
2018-05-13T23:17:55.775Z,12.58
2018-05-13T23:20:23.261Z,12.56
2018-05-13T23:22:50.725Z,12.54
2018-05-13T23:25:18.209Z,12.54
2018-05-13T23:27:45.673Z,12.51
2018-05-13T23:30:13.173Z,12.49
2018-05-13T23:32:40.634Z,12.52
2018-05-13T23:35:08.123Z,12.57
2018-05-13T23:37:36.309Z,12.57
2018-05-13T23:40:03.794Z,12.56
2018-05-13T23:42:31.258Z,12.53
2018-05-13T23:44:58.741Z,12.56
2018-05-13T23:47:26.205Z,12.50
2018-05-13T23:49:53.689Z,12.56
2018-05-13T23:52:21.161Z,12.49
2018-05-13T23:54:48.657Z,12.51
2018-05-13T23:57:16.117Z,12.50
2018-05-13T23:59:43.612Z,12.53
